Time;durP1;ratioP1;P1;durP2;ratioP2;P2;SDS_P1;SDS_P2;PMS_P1;PMS_P2;Temp;Humidity;BMP_temperature;BMP_pressure;BME280_temperature;BME280_humidity;BME280_pressure;Samples;Min_cycle;Max_cycle;Signal;HPM_P1;HPM_P2
2024/01/24 00:00:47;;;;;;;4.60;1.63;;;12.50;99.90;;;;;;5036017;28;20037;-90
2024/01/24 00:03:13;;;;;;;7.20;2.05;;;12.60;99.90;;;;;;5034684;28;20028;-88
2024/01/24 00:05:39;;;;;;;7.88;1.98;;;12.60;99.90;;;;;;5035955;28;20409;-85
2024/01/24 00:08:04;;;;;;;6.25;1.58;;;12.60;99.90;;;;;;5034769;28;20022;-88
2024/01/24 00:10:30;;;;;;;8.05;1.92;;;12.60;99.90;;;;;;5035913;28;20049;-87
2024/01/24 00:12:56;;;;;;;7.18;1.52;;;12.70;99.90;;;;;;5034622;28;20049;-87
2024/01/24 00:15:22;;;;;;;6.95;1.85;;;12.70;99.90;;;;;;5035621;28;20036;-85
2024/01/24 00:17:47;;;;;;;9.40;1.83;;;12.70;99.90;;;;;;5036291;28;20494;-90
2024/01/24 00:20:14;;;;;;;5.95;1.48;;;12.70;99.90;;;;;;5034923;28;20036;-89
2024/01/24 00:22:40;;;;;;;6.72;1.60;;;12.80;99.90;;;;;;5037100;28;20032;-89
2024/01/24 00:25:06;;;;;;;6.13;1.42;;;12.80;99.90;;;;;;5036968;28;20477;-89
2024/01/24 00:27:31;;;;;;;9.27;1.83;;;12.80;99.90;;;;;;5035642;28;20504;-85
2024/01/24 00:29:57;;;;;;;4.50;0.80;;;12.80;99.90;;;;;;4995029;28;1252879;-86
2024/01/24 00:32:23;;;;;;;5.85;0.90;;;12.80;99.90;;;;;;5037020;28;20033;-88
2024/01/24 00:34:48;;;;;;;4.38;1.27;;;12.80;99.90;;;;;;5035220;28;20473;-88
2024/01/24 00:37:14;;;;;;;8.90;1.13;;;12.80;99.90;;;;;;5036420;28;20033;-89
2024/01/24 00:39:40;;;;;;;5.50;0.90;;;12.80;99.90;;;;;;5035476;28;20033;-86
2024/01/24 00:42:05;;;;;;;3.47;1.02;;;12.90;99.90;;;;;;5036708;28;20425;-87
2024/01/24 00:44:31;;;;;;;4.03;0.75;;;12.90;99.90;;;;;;5034937;28;20578;-90
2024/01/24 00:46:57;;;;;;;3.60;1.00;;;12.90;99.90;;;;;;5036363;28;20041;-88
2024/01/24 00:49:22;;;;;;;3.63;0.88;;;13.00;99.90;;;;;;5036534;28;20116;-87
2024/01/24 00:51:48;;;;;;;2.65;0.70;;;12.90;99.90;;;;;;5036400;28;20029;-89
2024/01/24 00:54:14;;;;;;;1.70;0.63;;;12.90;99.90;;;;;;5035307;28;20490;-91
2024/01/24 00:56:40;;;;;;;5.03;0.70;;;12.90;99.90;;;;;;5037890;28;20057;-87
2024/01/24 00:59:06;;;;;;;5.95;0.63;;;12.90;99.90;;;;;;5038092;28;20037;-89
2024/01/24 01:01:31;;;;;;;4.10;0.80;;;12.90;99.90;;;;;;5035865;28;20029;-88
2024/01/24 01:03:57;;;;;;;1.58;0.40;;;12.90;99.90;;;;;;5035443;28;20033;-88
2024/01/24 01:06:23;;;;;;;2.45;0.60;;;12.90;99.90;;;;;;5036037;28;20037;-86
2024/01/24 01:08:49;;;;;;;3.08;0.70;;;12.90;99.90;;;;;;5034800;28;20090;-90
2024/01/24 01:11:14;;;;;;;2.03;0.57;;;12.90;99.90;;;;;;5035290;28;20031;-88
2024/01/24 01:13:41;;;;;;;1.80;0.77;;;12.90;99.90;;;;;;5035756;28;20105;-88
2024/01/24 01:16:07;;;;;;;3.05;0.60;;;12.90;99.90;;;;;;5034881;28;20030;-90
2024/01/24 01:18:32;;;;;;;1.55;0.50;;;12.90;99.90;;;;;;5034912;28;20017;-90
2024/01/24 01:20:58;;;;;;;2.97;0.60;;;12.80;99.90;;;;;;5034917;28;20045;-84
2024/01/24 01:23:24;;;;;;;1.92;0.60;;;12.80;99.90;;;;;;5036564;28;20112;-86
2024/01/24 01:25:49;;;;;;;1.33;0.63;;;12.80;99.90;;;;;;5036008;28;20034;-88
2024/01/24 01:28:15;;;;;;;3.47;0.50;;;12.80;99.90;;;;;;5034873;28;20045;-88
2024/01/24 01:30:40;;;;;;;1.95;0.55;;;12.70;99.90;;;;;;5035844;28;20037;-87
2024/01/24 01:33:06;;;;;;;2.17;0.63;;;12.60;99.90;;;;;;5035789;28;20017;-87
2024/01/24 01:35:33;;;;;;;2.17;0.70;;;12.60;99.90;;;;;;5035068;28;20053;-87
2024/01/24 01:37:58;;;;;;;3.20;0.80;;;12.50;99.90;;;;;;5035678;28;20024;-89
2024/01/24 01:40:24;;;;;;;2.78;0.80;;;12.50;99.90;;;;;;5035283;28;20025;-85
2024/01/24 01:42:50;;;;;;;1.88;0.80;;;12.50;99.90;;;;;;5035761;28;20401;-86
2024/01/24 01:45:15;;;;;;;4.13;1.00;;;12.40;99.90;;;;;;5035331;28;20104;-89
2024/01/24 01:47:43;;;;;;;2.20;0.82;;;12.40;99.90;;;;;;5034321;28;20474;-87
2024/01/24 01:50:10;;;;;;;2.38;0.90;;;12.40;99.90;;;;;;5035803;28;20096;-88
2024/01/24 01:52:37;;;;;;;2.78;1.20;;;12.40;99.90;;;;;;5035638;28;20103;-87
2024/01/24 01:55:04;;;;;;;3.95;1.60;;;12.30;99.90;;;;;;5035521;28;20018;-85
2024/01/24 01:57:31;;;;;;;2.42;1.00;;;12.30;99.90;;;;;;5034668;28;20025;-87
2024/01/24 01:59:58;;;;;;;3.25;1.23;;;12.30;99.90;;;;;;5033857;28;20024;-88
2024/01/24 02:02:24;;;;;;;3.30;1.27;;;12.30;99.90;;;;;;5035527;28;20034;-89
2024/01/24 02:04:51;;;;;;;3.78;1.40;;;12.30;99.90;;;;;;5034990;28;20088;-88
2024/01/24 02:07:17;;;;;;;3.03;1.33;;;12.20;99.90;;;;;;5034225;28;20025;-87
2024/01/24 02:09:44;;;;;;;3.92;1.65;;;12.20;99.90;;;;;;5035034;28;20028;-87
2024/01/24 02:12:09;;;;;;;2.95;1.77;;;12.20;99.90;;;;;;5035751;28;20053;-87
2024/01/24 02:14:35;;;;;;;2.92;1.65;;;12.20;99.90;;;;;;5035155;28;20021;-87
2024/01/24 02:17:01;;;;;;;2.67;1.70;;;12.20;99.90;;;;;;5034267;28;20028;-88
2024/01/24 02:19:27;;;;;;;3.30;1.70;;;12.20;99.90;;;;;;5034561;28;20037;-86
2024/01/24 02:21:53;;;;;;;3.50;1.67;;;12.20;99.90;;;;;;5033683;28;20061;-85
2024/01/24 02:24:19;;;;;;;3.83;2.10;;;12.20;99.90;;;;;;5033547;28;20021;-87
2024/01/24 02:26:44;;;;;;;4.07;1.83;;;12.20;99.90;;;;;;5034806;28;20103;-84
2024/01/24 02:29:14;;;;;;;4.07;2.10;;;12.20;99.90;;;;;;5033137;28;20032;-86
2024/01/24 02:31:40;;;;;;;3.25;2.13;;;12.20;99.90;;;;;;5033920;28;20047;-87
2024/01/24 02:34:05;;;;;;;5.45;2.30;;;12.20;99.90;;;;;;5033425;28;20116;-86
2024/01/24 02:36:31;;;;;;;2.78;1.38;;;12.20;99.90;;;;;;5033715;28;20030;-87
2024/01/24 02:38:56;;;;;;;2.78;1.38;;;12.20;99.90;;;;;;5035218;28;20212;-88
2024/01/24 02:41:22;;;;;;;3.40;1.25;;;12.20;99.90;;;;;;5033662;28;20032;-87
2024/01/24 02:43:48;;;;;;;2.17;1.30;;;12.20;99.90;;;;;;5036846;28;20480;-87
2024/01/24 02:46:14;;;;;;;1.90;1.05;;;12.20;99.90;;;;;;5035581;28;20056;-87
2024/01/24 02:48:41;;;;;;;1.98;1.05;;;12.20;99.90;;;;;;5036032;28;20022;-87
2024/01/24 02:51:06;;;;;;;1.98;1.00;;;12.20;99.90;;;;;;5033664;28;20021;-89
2024/01/24 02:53:32;;;;;;;3.20;1.17;;;12.30;99.90;;;;;;5033262;28;20183;-87
2024/01/24 02:55:58;;;;;;;1.45;0.85;;;12.30;99.90;;;;;;5034095;28;20104;-88
2024/01/24 02:58:23;;;;;;;2.60;0.90;;;12.30;99.90;;;;;;5032383;28;20448;-85
2024/01/24 03:00:49;;;;;;;4.13;1.13;;;12.30;99.90;;;;;;5033467;28;20393;-86
2024/01/24 03:03:14;;;;;;;2.35;0.80;;;12.30;99.90;;;;;;5033113;28;20029;-87
2024/01/24 03:05:40;;;;;;;1.63;0.75;;;12.30;99.90;;;;;;5036889;28;20029;-90
2024/01/24 03:08:06;;;;;;;2.78;0.90;;;12.30;99.90;;;;;;5034992;28;20025;-85
2024/01/24 03:10:31;;;;;;;3.55;1.00;;;12.30;99.90;;;;;;5039804;28;20026;-90
2024/01/24 03:12:57;;;;;;;7.75;1.10;;;12.30;99.90;;;;;;5036874;28;20033;-89
2024/01/24 03:15:23;;;;;;;2.35;0.60;;;12.30;99.90;;;;;;5035806;28;20021;-88
2024/01/24 03:17:48;;;;;;;6.20;1.00;;;12.30;99.90;;;;;;5033956;28;20453;-87
2024/01/24 03:20:14;;;;;;;3.72;0.93;;;12.30;99.90;;;;;;5033422;28;20026;-87
2024/01/24 03:22:40;;;;;;;3.30;0.82;;;12.30;99.90;;;;;;5032525;28;20022;-87
2024/01/24 03:25:06;;;;;;;3.80;0.80;;;12.30;99.90;;;;;;5033945;28;20078;-87
2024/01/24 03:27:32;;;;;;;2.42;0.77;;;12.30;99.90;;;;;;5033710;28;20545;-86
2024/01/24 03:29:58;;;;;;;2.28;0.88;;;12.30;99.90;;;;;;5032175;28;20065;-87
2024/01/24 03:32:24;;;;;;;7.00;1.13;;;12.30;99.90;;;;;;5033371;28;20060;-83
2024/01/24 03:34:58;;;;;;;5.45;1.00;;;12.30;99.90;;;;;;5033724;28;20025;-81
2024/01/24 03:37:24;;;;;;;6.80;0.95;;;12.30;99.90;;;;;;5032369;28;20022;-88
2024/01/24 03:39:50;;;;;;;8.23;1.30;;;12.30;99.90;;;;;;5032427;28;20033;-86
2024/01/24 03:42:15;;;;;;;10.60;1.48;;;12.30;99.90;;;;;;5033944;28;20354;-85
2024/01/24 03:44:41;;;;;;;6.28;0.80;;;12.30;99.90;;;;;;5034673;28;20042;-87
2024/01/24 03:47:07;;;;;;;9.13;0.88;;;12.30;99.90;;;;;;5037031;28;20577;-85
2024/01/24 03:49:32;;;;;;;9.23;1.00;;;12.30;99.90;;;;;;5033797;28;20099;-87
2024/01/24 03:51:58;;;;;;;8.95;1.23;;;12.30;99.90;;;;;;5033533;28;20018;-89
2024/01/24 03:54:24;;;;;;;12.85;0.95;;;12.30;99.90;;;;;;5031884;28;20017;-87
2024/01/24 03:56:50;;;;;;;8.27;1.20;;;12.30;99.90;;;;;;5032050;28;20025;-86
2024/01/24 03:59:16;;;;;;;14.55;1.20;;;12.30;99.90;;;;;;5033338;28;20030;-85
2024/01/24 04:01:42;;;;;;;10.63;1.00;;;12.30;99.90;;;;;;5033300;28;20037;-85
2024/01/24 04:04:08;;;;;;;14.75;1.38;;;12.30;99.90;;;;;;5033209;28;20041;-85
2024/01/24 04:06:35;;;;;;;14.18;1.52;;;12.20;99.90;;;;;;5032952;28;20033;-87
2024/01/24 04:09:00;;;;;;;10.25;1.70;;;12.30;99.90;;;;;;5033439;28;20057;-86
2024/01/24 04:11:26;;;;;;;17.70;2.72;;;12.20;99.90;;;;;;5036450;28;20115;-87
2024/01/24 04:13:53;;;;;;;19.15;1.98;;;12.20;99.90;;;;;;5037573;28;20022;-85
2024/01/24 04:16:19;;;;;;;13.35;1.90;;;12.20;99.90;;;;;;5037279;28;20032;-84
2024/01/24 04:18:44;;;;;;;19.30;2.20;;;12.20;99.90;;;;;;5036576;28;20025;-86
2024/01/24 04:21:10;;;;;;;13.50;2.22;;;12.10;99.90;;;;;;5036575;28;20030;-88
2024/01/24 04:23:35;;;;;;;21.98;2.30;;;12.00;99.90;;;;;;5037285;28;20117;-86
2024/01/24 04:26:04;;;;;;;21.58;2.67;;;12.00;99.90;;;;;;5037169;28;20063;-87
2024/01/24 04:28:33;;;;;;;17.92;2.40;;;11.90;99.90;;;;;;5037403;28;20083;-83
2024/01/24 04:30:59;;;;;;;24.83;3.55;;;11.90;99.90;;;;;;5037073;28;20060;-83
2024/01/24 04:33:25;;;;;;;17.10;2.13;;;11.90;99.90;;;;;;5036500;28;20026;-84
2024/01/24 04:35:51;;;;;;;21.15;3.75;;;11.80;99.90;;;;;;5035566;28;20064;-86
2024/01/24 04:38:16;;;;;;;22.50;2.95;;;11.90;99.90;;;;;;5036302;28;20074;-83
2024/01/24 04:40:42;;;;;;;19.13;2.70;;;11.80;99.90;;;;;;5036539;28;20026;-84
2024/01/24 04:43:08;;;;;;;18.58;4.18;;;11.80;99.90;;;;;;5036237;28;20389;-84
2024/01/24 04:45:34;;;;;;;22.13;3.20;;;11.80;99.90;;;;;;5036417;28;20490;-85
2024/01/24 04:47:59;;;;;;;22.83;3.40;;;11.70;99.90;;;;;;5035243;28;20493;-88
2024/01/24 04:50:25;;;;;;;18.67;2.90;;;11.70;99.90;;;;;;5036465;28;20017;-88
2024/01/24 04:52:51;;;;;;;19.08;3.33;;;11.70;99.90;;;;;;5036024;28;20208;-86
2024/01/24 04:55:17;;;;;;;21.58;3.75;;;11.60;99.90;;;;;;5035632;28;20100;-86
2024/01/24 04:57:42;;;;;;;31.17;4.05;;;11.60;99.90;;;;;;5034490;28;20032;-85
2024/01/24 05:00:09;;;;;;;24.02;4.10;;;11.60;99.90;;;;;;5036206;28;20031;-82
2024/01/24 05:02:36;;;;;;;24.58;3.92;;;11.60;99.90;;;;;;5034793;28;20048;-85
2024/01/24 05:05:02;;;;;;;25.23;5.40;;;11.60;99.90;;;;;;5035497;28;20072;-84
2024/01/24 05:07:28;;;;;;;29.33;4.90;;;11.60;99.90;;;;;;5035669;28;20117;-85
2024/01/24 05:09:53;;;;;;;31.08;4.55;;;11.60;99.90;;;;;;5034151;28;20108;-87
2024/01/24 05:12:19;;;;;;;29.65;4.13;;;11.70;99.90;;;;;;5035720;28;20382;-85
2024/01/24 05:14:45;;;;;;;27.10;3.97;;;11.70;99.90;;;;;;5031232;28;20458;-86
2024/01/24 05:17:11;;;;;;;35.90;4.85;;;11.70;99.90;;;;;;5015775;28;20389;-86
2024/01/24 05:19:36;;;;;;;26.75;4.28;;;11.70;99.90;;;;;;5015503;28;20030;-85
2024/01/24 05:22:02;;;;;;;25.80;3.60;;;11.60;99.90;;;;;;5014161;28;20022;-84
2024/01/24 05:24:28;;;;;;;27.08;4.30;;;11.60;99.90;;;;;;5015367;28;20102;-86
2024/01/24 05:26:53;;;;;;;29.88;5.10;;;11.60;99.90;;;;;;5015832;28;20088;-89
2024/01/24 05:29:19;;;;;;;28.80;4.47;;;11.60;99.90;;;;;;5015311;28;20026;-84
2024/01/24 05:31:45;;;;;;;30.15;5.30;;;11.60;99.90;;;;;;5013975;28;20076;-85
2024/01/24 05:34:11;;;;;;;38.60;6.13;;;11.60;99.90;;;;;;5015197;28;20018;-87
2024/01/24 05:36:39;;;;;;;28.00;4.75;;;11.50;99.90;;;;;;5014375;28;20033;-84
2024/01/24 05:39:07;;;;;;;37.10;5.88;;;11.50;99.90;;;;;;5015539;28;20025;-82
2024/01/24 05:41:34;;;;;;;26.17;4.90;;;11.50;99.90;;;;;;5015223;28;20084;-82
2024/01/24 05:44:00;;;;;;;30.70;5.65;;;11.50;99.90;;;;;;5015323;28;20021;-86
2024/01/24 05:46:25;;;;;;;38.20;5.85;;;11.50;99.90;;;;;;5015167;28;20037;-82
2024/01/24 05:48:51;;;;;;;39.75;6.15;;;11.50;99.90;;;;;;5019619;28;20105;-86
2024/01/24 05:51:17;;;;;;;29.80;5.75;;;11.60;99.90;;;;;;5019744;28;20534;-86
2024/01/24 05:53:42;;;;;;;32.33;6.47;;;11.60;99.90;;;;;;5015542;28;20030;-86
2024/01/24 05:56:09;;;;;;;38.22;5.45;;;11.70;99.90;;;;;;5015164;28;20504;-86
2024/01/24 05:58:36;;;;;;;31.38;5.82;;;11.70;99.90;;;;;;5014927;28;20040;-85
2024/01/24 06:01:02;;;;;;;34.28;5.60;;;11.70;99.90;;;;;;5014816;28;20029;-84
2024/01/24 06:03:28;;;;;;;32.03;5.03;;;11.70;99.90;;;;;;5014366;28;20466;-84
2024/01/24 06:05:53;;;;;;;29.10;5.32;;;11.70;99.90;;;;;;5014957;28;20045;-86
2024/01/24 06:08:19;;;;;;;34.42;5.68;;;11.70;99.90;;;;;;5016509;28;20470;-82
2024/01/24 06:10:45;;;;;;;33.42;6.45;;;11.70;99.90;;;;;;5020055;28;20037;-82
2024/01/24 06:13:10;;;;;;;34.28;5.70;;;11.70;99.90;;;;;;5032523;28;20473;-87
2024/01/24 06:15:37;;;;;;;27.95;5.45;;;11.70;99.80;;;;;;5032079;28;20033;-82
2024/01/24 06:18:03;;;;;;;33.42;6.03;;;11.70;99.50;;;;;;5033185;28;20045;-83
2024/01/24 06:20:29;;;;;;;35.70;6.50;;;11.60;99.20;;;;;;5034054;28;20543;-86
2024/01/24 06:22:54;;;;;;;35.22;5.82;;;11.60;99.20;;;;;;5033874;28;20531;-84
2024/01/24 06:25:20;;;;;;;29.50;5.25;;;11.60;99.20;;;;;;5032802;28;20148;-86
2024/01/24 06:27:46;;;;;;;33.28;6.35;;;11.60;99.50;;;;;;5033961;28;20049;-84
2024/01/24 06:30:12;;;;;;;34.47;6.65;;;11.50;99.90;;;;;;5033668;28;20397;-84
2024/01/24 06:32:38;;;;;;;42.47;7.30;;;11.50;99.90;;;;;;5033658;28;20053;-86
2024/01/24 06:35:04;;;;;;;45.28;6.82;;;11.40;99.90;;;;;;5032028;28;20056;-83
2024/01/24 06:37:29;;;;;;;46.60;6.85;;;11.30;99.90;;;;;;5035399;28;20063;-84
2024/01/24 06:39:55;;;;;;;42.90;6.90;;;11.30;99.90;;;;;;5038382;28;20075;-85
2024/01/24 06:42:20;;;;;;;40.47;6.63;;;11.30;99.90;;;;;;5036475;28;20030;-82
2024/01/24 06:44:46;;;;;;;44.15;8.70;;;11.20;99.90;;;;;;5032219;28;20033;-87
2024/01/24 06:47:12;;;;;;;44.72;7.90;;;11.20;99.90;;;;;;5032162;28;20065;-84
2024/01/24 06:49:37;;;;;;;44.53;7.97;;;11.10;99.90;;;;;;5032385;28;20372;-86
2024/01/24 06:52:03;;;;;;;38.15;6.97;;;11.10;99.90;;;;;;5033823;28;20025;-87
2024/01/24 06:54:29;;;;;;;51.58;8.98;;;11.10;99.90;;;;;;5033733;28;20017;-86
2024/01/24 06:56:55;;;;;;;50.72;8.68;;;11.00;99.90;;;;;;5033503;28;20040;-83
2024/01/24 06:59:20;;;;;;;33.20;6.53;;;11.00;99.90;;;;;;5031778;28;20030;-85
2024/01/24 07:01:46;;;;;;;44.47;7.13;;;10.90;99.90;;;;;;5033819;28;20029;-85
2024/01/24 07:04:11;;;;;;;42.72;8.00;;;10.90;99.70;;;;;;5033288;28;20029;-85
2024/01/24 07:06:37;;;;;;;44.20;6.95;;;10.80;99.70;;;;;;5032056;28;20126;-83
2024/01/24 07:09:03;;;;;;;52.08;9.27;;;10.80;99.80;;;;;;5032345;28;20099;-83
2024/01/24 07:11:28;;;;;;;43.05;6.93;;;10.70;99.60;;;;;;5032416;28;20010;-83
2024/01/24 07:13:54;;;;;;;47.92;7.78;;;10.70;99.60;;;;;;5031669;28;20009;-84
2024/01/24 07:16:20;;;;;;;50.88;7.75;;;10.70;99.30;;;;;;5033479;28;20018;-85
2024/01/24 07:18:45;;;;;;;49.97;8.25;;;10.60;99.00;;;;;;5032871;28;20029;-86
2024/01/24 07:21:11;;;;;;;40.67;7.85;;;10.60;99.00;;;;;;5032715;28;20030;-84
2024/01/24 07:23:37;;;;;;;41.35;7.10;;;10.60;98.90;;;;;;5032643;28;20064;-84
2024/01/24 07:26:02;;;;;;;42.83;6.50;;;10.60;99.00;;;;;;5033030;28;20034;-83
2024/01/24 07:28:29;;;;;;;48.30;8.55;;;10.50;98.80;;;;;;5032623;28;20037;-82
2024/01/24 07:30:55;;;;;;;40.70;7.93;;;10.50;98.70;;;;;;5032119;28;20753;-83
2024/01/24 07:33:21;;;;;;;46.10;8.35;;;10.50;98.80;;;;;;5031973;28;20546;-83
2024/01/24 07:35:47;;;;;;;50.30;8.32;;;10.40;98.70;;;;;;5032849;28;20445;-85
2024/01/24 07:38:12;;;;;;;46.03;7.88;;;10.40;98.70;;;;;;5032953;28;20034;-85
2024/01/24 07:40:38;;;;;;;39.77;7.87;;;10.30;98.60;;;;;;5032627;28;20059;-85
2024/01/24 07:43:04;;;;;;;58.73;10.17;;;10.30;98.70;;;;;;5031597;28;20022;-84
2024/01/24 07:45:30;;;;;;;41.37;7.47;;;10.30;98.70;;;;;;5034971;28;20028;-84
2024/01/24 07:47:57;;;;;;;45.63;7.10;;;10.20;98.60;;;;;;5035384;28;20382;-83
2024/01/24 07:50:22;;;;;;;44.90;8.85;;;10.20;98.70;;;;;;5029160;28;20521;-85
2024/01/24 07:52:48;;;;;;;52.47;8.03;;;10.20;98.60;;;;;;5025309;28;20036;-83
2024/01/24 07:55:14;;;;;;;47.83;7.83;;;10.20;98.60;;;;;;5025424;28;20021;-83
2024/01/24 07:57:40;;;;;;;57.47;8.90;;;10.20;98.50;;;;;;5026208;28;20022;-85
2024/01/24 08:00:06;;;;;;;43.13;7.95;;;10.20;98.40;;;;;;5036276;28;20029;-83
2024/01/24 08:02:32;;;;;;;39.60;7.63;;;10.10;98.40;;;;;;5034718;28;20092;-85
2024/01/24 08:04:58;;;;;;;49.37;8.67;;;10.20;98.30;;;;;;5034553;28;20014;-83
2024/01/24 08:07:24;;;;;;;37.13;7.33;;;10.10;98.10;;;;;;5035301;28;20037;-82
2024/01/24 08:09:50;;;;;;;51.07;8.50;;;10.10;97.90;;;;;;5033964;28;20540;-84
2024/01/24 08:12:15;;;;;;;43.80;7.20;;;10.10;97.90;;;;;;5035614;28;20101;-85
2024/01/24 08:14:41;;;;;;;43.80;6.53;;;10.10;97.80;;;;;;5024166;28;20470;-84
2024/01/24 08:17:10;;;;;;;37.40;7.60;;;10.10;97.50;;;;;;5026745;28;20028;-83
2024/01/24 08:19:38;;;;;;;45.90;7.73;;;10.10;97.50;;;;;;5024851;28;20026;-84
2024/01/24 08:22:04;;;;;;;30.77;6.27;;;10.10;97.20;;;;;;5025896;28;20074;-84
2024/01/24 08:24:30;;;;;;;32.77;6.83;;;10.10;97.20;;;;;;5024358;28;20022;-85
2024/01/24 08:26:56;;;;;;;39.30;7.95;;;10.20;97.00;;;;;;5025178;28;20029;-85
2024/01/24 08:29:21;;;;;;;39.92;7.15;;;10.20;96.50;;;;;;5026827;28;20029;-82
2024/01/24 08:31:47;;;;;;;41.78;7.38;;;10.20;96.30;;;;;;5026959;28;20137;-83
2024/01/24 08:34:13;;;;;;;36.87;6.17;;;10.30;95.90;;;;;;5028297;28;20053;-85
2024/01/24 08:36:39;;;;;;;43.80;7.40;;;10.30;95.80;;;;;;5027361;28;20088;-83
2024/01/24 08:39:06;;;;;;;43.60;8.03;;;10.30;95.60;;;;;;5026245;28;20029;-84
2024/01/24 08:41:32;;;;;;;38.55;7.18;;;10.30;95.40;;;;;;5036046;28;20021;-82
2024/01/24 08:43:58;;;;;;;31.60;6.23;;;10.30;95.40;;;;;;5034934;28;20036;-85
2024/01/24 08:46:24;;;;;;;39.83;7.32;;;10.30;95.40;;;;;;5033599;28;20112;-83
2024/01/24 08:48:51;;;;;;;38.47;7.37;;;10.30;95.20;;;;;;5029239;28;20052;-83
2024/01/24 08:51:17;;;;;;;38.77;7.63;;;10.30;95.20;;;;;;5031766;28;20024;-84
2024/01/24 08:53:43;;;;;;;35.57;7.00;;;10.30;95.00;;;;;;5035194;28;20021;-82
2024/01/24 08:56:11;;;;;;;40.22;6.95;;;10.40;94.90;;;;;;5034520;28;20096;-84
2024/01/24 08:58:37;;;;;;;34.75;7.30;;;10.40;94.80;;;;;;5033729;28;20510;-82
2024/01/24 09:01:03;;;;;;;36.97;6.67;;;10.40;94.80;;;;;;5028329;28;20033;-83
2024/01/24 09:03:28;;;;;;;36.63;6.57;;;10.40;94.50;;;;;;5034056;28;20504;-86
2024/01/24 09:05:54;;;;;;;44.30;7.35;;;10.40;94.70;;;;;;5035769;28;20044;-82
2024/01/24 09:08:20;;;;;;;44.90;8.32;;;10.50;94.40;;;;;;5035543;28;20049;-86
2024/01/24 09:10:46;;;;;;;42.42;6.53;;;10.50;94.30;;;;;;5035407;28;20104;-86
2024/01/24 09:13:12;;;;;;;46.20;7.03;;;10.50;94.20;;;;;;5035181;28;20119;-86
2024/01/24 09:15:38;;;;;;;32.60;6.85;;;10.50;94.10;;;;;;5034997;28;20030;-85
2024/01/24 09:18:06;;;;;;;38.95;6.75;;;10.50;93.90;;;;;;5035104;28;20425;-84
2024/01/24 09:20:32;;;;;;;35.50;7.00;;;10.60;94.00;;;;;;5033513;28;20104;-81
2024/01/24 09:22:58;;;;;;;41.78;6.88;;;10.60;94.00;;;;;;5034928;28;20100;-85
2024/01/24 09:25:23;;;;;;;35.20;6.90;;;10.60;94.10;;;;;;5033597;28;20457;-83
2024/01/24 09:27:49;;;;;;;37.65;6.50;;;10.60;93.80;;;;;;5034794;28;20028;-81
2024/01/24 09:30:15;;;;;;;40.35;7.07;;;10.70;93.60;;;;;;5034443;28;20125;-83
2024/01/24 09:32:41;;;;;;;33.58;6.30;;;10.70;93.40;;;;;;5034845;28;20025;-83
2024/01/24 09:35:07;;;;;;;32.85;6.93;;;10.80;93.50;;;;;;5033415;28;20017;-82
2024/01/24 09:37:33;;;;;;;30.00;6.22;;;10.80;93.20;;;;;;5034839;28;20021;-82
2024/01/24 09:39:59;;;;;;;42.70;8.27;;;10.80;93.20;;;;;;5034792;28;20022;-79
2024/01/24 09:42:26;;;;;;;47.28;7.57;;;10.90;92.90;;;;;;5033338;28;20433;-83
2024/01/24 09:44:52;;;;;;;33.20;6.82;;;10.80;92.90;;;;;;5033181;28;20478;-83
2024/01/24 09:47:22;;;;;;;37.47;6.78;;;10.90;93.10;;;;;;5032645;28;20524;-85
2024/01/24 09:49:48;;;;;;;35.65;6.45;;;11.00;92.80;;;;;;5024537;28;20397;-83
2024/01/24 09:52:16;;;;;;;33.55;5.63;;;11.10;92.40;;;;;;5022852;28;20463;-84
2024/01/24 09:54:43;;;;;;;36.00;5.97;;;11.20;92.40;;;;;;5028934;28;20024;-83
2024/01/24 09:57:10;;;;;;;29.55;5.70;;;11.30;92.40;;;;;;5034320;28;20466;-85
2024/01/24 09:59:36;;;;;;;30.90;6.45;;;11.50;92.50;;;;;;5034086;28;20108;-84
2024/01/24 10:02:03;;;;;;;40.05;6.93;;;11.70;92.00;;;;;;5033086;28;20457;-84
2024/01/24 10:04:36;;;;;;;29.50;6.50;;;11.90;91.20;;;;;;5034322;28;20022;-87
2024/01/24 10:07:04;;;;;;;31.80;7.22;;;12.20;91.00;;;;;;5026417;28;20026;-84
2024/01/24 10:09:30;;;;;;;30.20;5.25;;;12.40;90.00;;;;;;5014270;28;20034;-85
2024/01/24 10:11:55;;;;;;;27.88;6.13;;;12.50;90.10;;;;;;5012743;28;20061;-81
2024/01/24 10:14:22;;;;;;;34.65;5.65;;;12.70;90.10;;;;;;5014078;28;20033;-84
2024/01/24 10:16:50;;;;;;;32.92;6.35;;;12.90;88.00;;;;;;5014171;28;20042;-81
2024/01/24 10:19:20;;;;;;;28.77;4.75;;;13.00;87.40;;;;;;5012863;28;20026;-83
2024/01/24 10:21:48;;;;;;;30.17;6.60;;;13.20;86.60;;;;;;5014220;28;20421;-82
2024/01/24 10:24:13;;;;;;;27.05;5.70;;;13.60;85.70;;;;;;5014446;28;20026;-82
2024/01/24 10:26:39;;;;;;;28.73;6.63;;;13.80;82.60;;;;;;5012790;28;20030;-82
2024/01/24 10:29:07;;;;;;;29.13;5.13;;;14.00;82.50;;;;;;5013826;28;20037;-82
2024/01/24 10:31:32;;;;;;;27.00;6.88;;;14.20;81.70;;;;;;5012218;28;20038;-82
2024/01/24 10:33:58;;;;;;;30.27;6.15;;;14.30;80.00;;;;;;5012283;28;20026;-82
2024/01/24 10:36:27;;;;;;;34.25;6.85;;;14.20;78.90;;;;;;5013435;28;20022;-88
2024/01/24 10:39:03;;;;;;;31.25;6.70;;;14.00;77.50;;;;;;5019938;28;20026;-83
2024/01/24 10:41:30;;;;;;;32.60;5.80;;;13.80;78.00;;;;;;5028999;28;20037;-81
2024/01/24 10:44:01;;;;;;;25.58;5.35;;;13.60;78.90;;;;;;5024320;28;20018;-81
2024/01/24 10:46:28;;;;;;;26.83;6.45;;;13.50;78.70;;;;;;5020926;28;20029;-82
2024/01/24 10:48:54;;;;;;;35.08;6.80;;;13.40;78.60;;;;;;5024032;28;20489;-84
2024/01/24 10:51:20;;;;;;;26.95;5.88;;;13.30;79.10;;;;;;5022936;28;20362;-82
2024/01/24 10:53:48;;;;;;;28.65;5.70;;;13.10;79.70;;;;;;5021398;28;20018;-83
2024/01/24 10:56:15;;;;;;;31.02;6.32;;;13.00;79.40;;;;;;5023926;28;20013;-83
2024/01/24 10:58:42;;;;;;;35.92;6.47;;;12.90;78.90;;;;;;5023833;28;20029;-84
2024/01/24 11:01:08;;;;;;;31.25;5.25;;;12.90;80.10;;;;;;5021158;28;20024;-84
2024/01/24 11:03:34;;;;;;;28.70;5.35;;;12.90;80.20;;;;;;5023827;28;20017;-85
2024/01/24 11:06:05;;;;;;;30.85;6.25;;;12.90;80.30;;;;;;5022333;28;20022;-85
2024/01/24 11:08:56;;;;;;;33.28;6.43;;;12.80;80.00;;;;;;5022833;28;20014;-86
2024/01/24 11:11:23;;;;;;;30.58;6.68;;;12.90;80.40;;;;;;5025378;28;20448;-84
2024/01/24 11:13:52;;;;;;;31.35;5.50;;;12.90;80.20;;;;;;5033863;28;20042;-83
2024/01/24 11:16:41;;;;;;;29.50;5.65;;;12.90;80.30;;;;;;5025666;28;20385;-84
2024/01/24 11:19:22;;;;;;;34.78;5.47;;;12.90;79.10;;;;;;5026159;28;20022;-85
2024/01/24 11:21:52;;;;;;;35.40;5.60;;;13.00;79.10;;;;;;5018021;28;20033;-86
2024/01/24 11:24:40;;;;;;;27.65;6.22;;;13.00;79.30;;;;;;5024980;28;20061;-84
2024/01/24 11:27:36;;;;;;;32.13;6.68;;;13.10;78.80;;;;;;5052696;28;20124;-85
2024/01/24 11:30:26;;;;;;;26.30;5.70;;;13.20;78.30;;;;;;5032462;28;20402;-82
2024/01/24 11:32:58;;;;;;;31.77;6.20;;;13.30;78.60;;;;;;5036682;28;20021;-84
2024/01/24 11:35:38;;;;;;;28.25;5.25;;;13.30;78.50;;;;;;5036860;28;20033;-86
2024/01/24 11:38:27;;;;;;;32.78;5.00;;;13.20;78.20;;;;;;5036947;28;20035;-87
2024/01/24 11:40:58;;;;;;;31.17;5.63;;;13.20;78.00;;;;;;5035547;28;20033;-85
2024/01/24 11:43:30;;;;;;;35.72;6.40;;;13.10;78.60;;;;;;5036034;28;20382;-83
2024/01/24 11:46:06;;;;;;;32.65;6.22;;;13.00;78.30;;;;;;5036779;28;20025;-82
2024/01/24 11:48:34;;;;;;;32.55;5.97;;;13.00;78.90;;;;;;5036828;28;20441;-82
2024/01/24 11:51:08;;;;;;;33.78;6.72;;;12.90;78.90;;;;;;5034362;28;20386;-86
2024/01/24 11:53:34;;;;;;;29.65;6.53;;;12.90;79.20;;;;;;5036075;28;20369;-86
2024/01/24 11:56:04;;;;;;;34.17;6.20;;;12.90;79.30;;;;;;5034000;28;20026;-83
2024/01/24 11:58:30;;;;;;;34.65;6.50;;;12.90;79.60;;;;;;5034431;28;20061;-84
2024/01/24 12:01:00;;;;;;;30.58;5.85;;;13.00;79.70;;;;;;5036505;28;20030;-82
2024/01/24 12:03:26;;;;;;;24.08;5.28;;;13.10;79.70;;;;;;5035612;28;20038;-84
2024/01/24 12:05:52;;;;;;;36.92;6.88;;;13.20;79.00;;;;;;5037199;28;20028;-83
2024/01/24 12:08:18;;;;;;;28.73;6.07;;;13.20;78.50;;;;;;5033852;28;20022;-85
2024/01/24 12:10:44;;;;;;;23.20;5.25;;;13.20;78.70;;;;;;5035823;28;20112;-81
2024/01/24 12:13:11;;;;;;;30.98;5.70;;;13.20;78.90;;;;;;5036060;28;20093;-85
2024/01/24 12:15:36;;;;;;;23.25;4.80;;;13.10;78.70;;;;;;5036048;28;20025;-81
2024/01/24 12:18:05;;;;;;;31.75;5.97;;;13.10;78.80;;;;;;5030200;28;20560;-82
2024/01/24 12:20:31;;;;;;;35.75;5.30;;;13.00;79.50;;;;;;5030281;28;20041;-83
2024/01/24 12:22:57;;;;;;;34.35;7.00;;;13.00;79.30;;;;;;5025296;28;20026;-85
2024/01/24 12:25:23;;;;;;;36.28;6.28;;;12.90;79.00;;;;;;5026808;28;20124;-82
2024/01/24 12:27:50;;;;;;;25.88;5.45;;;12.80;79.30;;;;;;5034615;28;20025;-82
2024/01/24 12:30:16;;;;;;;28.65;5.65;;;12.70;79.50;;;;;;5034715;28;20037;-84
2024/01/24 12:32:41;;;;;;;31.63;5.65;;;12.70;79.60;;;;;;5034929;28;20017;-87
2024/01/24 12:35:10;;;;;;;26.67;5.72;;;12.60;79.90;;;;;;5035667;28;20478;-81
2024/01/24 12:37:37;;;;;;;29.38;5.38;;;12.60;80.20;;;;;;5033024;28;20017;-86